createdAt,value
2018-09-06T09:09:35.630Z,17.47
2018-09-06T09:12:38.736Z,16.80
2018-09-06T09:15:42.022Z,16.50
2018-09-06T09:18:45.183Z,16.00
2018-09-06T09:21:48.345Z,16.30
2018-09-06T09:24:51.424Z,14.13
2018-09-06T09:27:55.341Z,14.10
2018-09-06T09:30:58.576Z,15.23
2018-09-06T09:34:01.693Z,15.10
2018-09-06T09:37:04.778Z,13.70
2018-09-06T09:40:07.984Z,13.83
2018-09-06T09:43:11.236Z,13.37
2018-09-06T09:49:16.737Z,13.23
2018-09-06T09:52:21.111Z,13.43
2018-09-06T09:55:24.206Z,13.07
2018-09-06T09:58:27.314Z,12.50
2018-09-06T10:01:35.895Z,12.53
2018-09-06T10:04:43.218Z,13.13
2018-09-06T10:07:51.874Z,12.60
2018-09-06T10:10:55.120Z,12.93
2018-09-06T10:13:58.247Z,12.07
2018-09-06T10:17:01.345Z,12.00
2018-09-06T10:20:04.494Z,11.97
2018-09-06T10:23:07.718Z,12.10
2018-09-06T10:29:39.235Z,11.33
2018-09-06T10:32:42.429Z,12.00
2018-09-06T10:35:45.518Z,11.13
2018-09-06T10:38:48.612Z,11.50
2018-09-06T10:41:51.743Z,11.53
2018-09-06T10:44:54.912Z,11.43
2018-09-06T10:47:58.070Z,11.87
2018-09-06T10:51:01.275Z,11.57
2018-09-06T10:54:04.367Z,10.67
2018-09-06T10:57:07.862Z,11.33
2018-09-06T11:00:10.980Z,10.23
2018-09-06T11:03:14.099Z,11.47
2018-09-06T11:06:17.255Z,10.87
2018-09-06T11:09:20.367Z,10.60
2018-09-06T11:12:23.491Z,10.17
2018-09-06T11:15:26.602Z,10.50
2018-09-06T11:18:29.866Z,10.17
2018-09-06T11:21:33.077Z,9.77
2018-09-06T11:24:36.060Z,9.90
2018-09-06T11:27:39.241Z,10.23
2018-09-06T11:30:42.252Z,9.63
2018-09-06T11:33:45.353Z,9.60
2018-09-06T11:36:48.423Z,9.78
2018-09-06T11:39:51.571Z,10.48
2018-09-06T11:42:54.661Z,9.25
2018-09-06T11:45:57.763Z,9.48
2018-09-06T11:49:00.867Z,9.05
2018-09-06T11:52:04.139Z,9.15
2018-09-06T11:55:08.311Z,9.45
2018-09-06T11:58:11.482Z,8.70
2018-09-06T12:01:14.623Z,9.38
2018-09-06T12:04:17.760Z,9.75
2018-09-06T12:07:20.846Z,8.80
2018-09-06T12:10:23.951Z,8.75
2018-09-06T12:13:27.059Z,8.50
2018-09-06T12:16:30.171Z,8.70
2018-09-06T12:19:33.353Z,8.58
2018-09-06T12:22:36.395Z,8.68
2018-09-06T12:25:39.542Z,7.83
2018-09-06T12:28:42.605Z,8.23
2018-09-06T12:31:45.706Z,8.55
2018-09-06T12:34:48.854Z,8.80
2018-09-06T12:37:51.946Z,8.20
2018-09-06T12:40:55.073Z,8.28
2018-09-06T12:43:58.412Z,8.48
2018-09-06T12:47:01.799Z,7.45
2018-09-06T12:50:04.915Z,7.65
2018-09-06T12:53:08.007Z,7.08
2018-09-06T12:56:11.115Z,7.00
2018-09-06T12:59:14.311Z,7.30
2018-09-06T13:02:17.405Z,7.10
2018-09-06T13:05:20.497Z,7.83
2018-09-06T13:08:23.615Z,7.50
2018-09-06T13:11:26.724Z,7.50
2018-09-06T13:14:29.820Z,7.70
2018-09-06T13:17:32.903Z,7.22
2018-09-06T13:20:36.071Z,7.53
2018-09-06T13:23:39.155Z,7.10
2018-09-06T13:26:42.256Z,6.75
2018-09-06T13:29:45.388Z,7.12
2018-09-06T13:32:48.501Z,6.97
2018-09-06T13:35:51.664Z,7.00
2018-09-06T13:38:54.803Z,6.78
2018-09-06T13:41:58.339Z,6.70
2018-09-06T13:45:01.460Z,6.70
2018-09-06T13:48:04.559Z,6.90
2018-09-06T13:51:07.739Z,7.33
2018-09-06T13:54:10.904Z,7.20
2018-09-06T13:57:13.984Z,6.58
2018-09-06T14:00:17.247Z,6.85
2018-09-06T14:03:20.320Z,7.10
2018-09-06T14:06:23.407Z,6.72
2018-09-06T14:09:26.588Z,6.85
2018-09-06T14:12:29.716Z,6.53
2018-09-06T14:15:32.827Z,6.70
2018-09-06T14:18:35.967Z,6.70
2018-09-06T14:21:39.139Z,6.45
2018-09-06T14:24:42.217Z,6.83
2018-09-06T14:27:45.426Z,6.55
2018-09-06T14:30:48.613Z,6.37
2018-09-06T14:33:51.962Z,6.85
2018-09-06T14:36:55.075Z,6.80
2018-09-06T14:39:58.300Z,7.03
2018-09-06T14:43:02.511Z,7.00
2018-09-06T14:46:05.606Z,6.87
2018-09-06T14:49:09.841Z,6.65
2018-09-06T14:52:12.935Z,7.08
2018-09-06T14:55:16.134Z,7.12
2018-09-06T14:58:19.238Z,6.80
2018-09-06T15:01:22.433Z,6.90
2018-09-06T15:04:25.468Z,6.92
2018-09-06T15:07:29.680Z,6.47
2018-09-06T15:10:32.802Z,6.83
2018-09-06T15:13:36.166Z,7.28
2018-09-06T15:16:39.432Z,6.85
2018-09-06T15:19:42.701Z,6.70
2018-09-06T15:22:45.829Z,7.37
2018-09-06T15:25:48.937Z,7.70
2018-09-06T15:28:52.234Z,7.33
2018-09-06T15:31:55.929Z,6.97
2018-09-06T15:34:59.162Z,7.42
2018-09-06T15:38:02.326Z,6.40
2018-09-06T15:41:05.469Z,7.10
2018-09-06T15:44:08.717Z,7.22
2018-09-06T15:47:11.884Z,6.87
2018-09-06T15:50:14.984Z,6.40
2018-09-06T15:53:18.074Z,6.70
2018-09-06T15:56:21.208Z,6.37
2018-09-06T15:59:24.292Z,6.22
2018-09-06T16:02:27.472Z,6.95
2018-09-06T16:05:30.575Z,6.25
2018-09-06T16:08:33.767Z,6.45
2018-09-06T16:11:36.951Z,6.55
2018-09-06T16:14:40.244Z,6.53
2018-09-06T16:17:44.023Z,6.83
2018-09-06T16:20:48.248Z,7.15
2018-09-06T16:23:51.364Z,6.90
2018-09-06T16:26:54.603Z,6.55
2018-09-06T16:29:57.691Z,7.05
2018-09-06T16:33:00.811Z,6.77
2018-09-06T16:36:03.937Z,6.70
2018-09-06T16:39:08.479Z,6.47
2018-09-06T16:42:11.576Z,7.07
2018-09-06T16:45:14.711Z,6.60
2018-09-06T16:48:17.825Z,6.80
2018-09-06T16:51:21.004Z,6.10
2018-09-06T16:54:24.095Z,6.53
2018-09-06T16:57:27.179Z,7.07
2018-09-06T17:00:30.324Z,6.07
2018-09-06T17:03:33.413Z,6.23
2018-09-06T17:06:36.550Z,6.23
2018-09-06T17:09:39.679Z,6.07
2018-09-06T17:12:42.887Z,7.00
2018-09-06T17:15:45.995Z,6.23
2018-09-06T17:18:49.067Z,6.33
2018-09-06T17:21:52.178Z,6.43
2018-09-06T17:24:55.343Z,6.60
2018-09-06T17:27:58.428Z,6.30
2018-09-06T17:31:01.607Z,6.17
2018-09-06T17:34:04.814Z,6.07
2018-09-06T17:37:07.962Z,6.20
2018-09-06T17:40:11.128Z,6.47
2018-09-06T17:43:14.219Z,6.73
2018-09-06T17:46:17.404Z,6.33
2018-09-06T17:49:20.554Z,6.80
2018-09-06T17:52:23.766Z,7.80
2018-09-06T17:55:26.902Z,8.60
2018-09-06T17:58:30.095Z,9.77
2018-09-06T18:01:35.662Z,8.70
2018-09-06T18:04:38.759Z,8.57
2018-09-06T18:07:42.052Z,8.30
2018-09-06T18:10:45.505Z,8.00
2018-09-06T18:13:48.772Z,8.80
2018-09-06T18:16:51.948Z,8.07
2018-09-06T18:19:55.067Z,8.83
2018-09-06T18:22:58.312Z,8.77
2018-09-06T18:26:01.463Z,9.40
2018-09-06T18:29:04.611Z,9.23
2018-09-06T18:32:07.804Z,9.27
2018-09-06T18:35:12.039Z,9.80
2018-09-06T18:38:15.220Z,9.17
2018-09-06T18:41:18.542Z,9.20
2018-09-06T18:44:21.644Z,10.07
2018-09-06T18:47:24.824Z,9.77
2018-09-06T18:50:27.971Z,9.90
2018-09-06T18:53:31.084Z,10.50
2018-09-06T18:56:34.304Z,11.10
2018-09-06T18:59:37.572Z,11.17
2018-09-06T19:02:40.732Z,11.20
2018-09-06T19:05:43.892Z,10.07
2018-09-06T19:08:47.112Z,11.57
2018-09-06T19:11:50.215Z,11.23
2018-09-06T19:14:53.353Z,10.87
2018-09-06T19:17:56.468Z,10.17
2018-09-06T19:20:59.655Z,9.63
2018-09-06T19:24:03.007Z,10.13
2018-09-06T19:27:06.459Z,10.07
2018-09-06T19:30:09.591Z,10.73
2018-09-06T19:33:12.727Z,10.10
2018-09-06T19:36:15.840Z,9.93
2018-09-06T19:39:19.028Z,10.23
2018-09-06T19:42:22.340Z,10.07
2018-09-06T19:45:25.497Z,10.07
2018-09-06T19:48:28.700Z,10.40
2018-09-06T19:51:31.820Z,10.10
2018-09-06T19:54:34.962Z,9.90
2018-09-06T19:57:38.115Z,10.53
2018-09-06T20:00:41.312Z,10.40
2018-09-06T20:03:45.082Z,11.10
2018-09-06T20:06:48.442Z,11.07
2018-09-06T20:09:51.611Z,12.07
2018-09-06T20:12:54.846Z,11.10
2018-09-06T20:15:58.207Z,12.97
2018-09-06T20:19:01.361Z,14.73
2018-09-06T20:22:07.421Z,16.00
2018-09-06T20:25:10.676Z,14.77
2018-09-06T20:28:15.836Z,14.53
2018-09-06T20:31:18.975Z,15.17
2018-09-06T20:34:22.116Z,13.87
2018-09-06T20:37:25.251Z,15.70
2018-09-06T20:40:28.431Z,14.57
2018-09-06T20:43:32.160Z,15.27
2018-09-06T20:46:35.277Z,14.53
2018-09-06T20:49:38.373Z,16.27
2018-09-06T20:52:41.467Z,16.23
2018-09-06T20:55:44.669Z,17.17
2018-09-06T20:58:47.763Z,16.83
2018-09-06T21:01:50.876Z,18.47
2018-09-06T21:04:54.578Z,19.60
2018-09-06T21:07:57.789Z,19.07
2018-09-06T21:11:01.167Z,22.03
2018-09-06T21:14:04.347Z,21.93
2018-09-06T21:17:07.630Z,23.40
2018-09-06T21:20:10.727Z,24.77
2018-09-06T21:23:13.822Z,25.73
2018-09-06T21:26:16.916Z,27.27
2018-09-06T21:29:19.987Z,31.00
2018-09-06T21:32:23.097Z,31.50
2018-09-06T21:35:26.236Z,31.00
2018-09-06T21:38:29.308Z,34.33
2018-09-06T21:41:32.427Z,33.10
2018-09-06T21:44:35.517Z,38.57
2018-09-06T21:47:38.626Z,35.67
2018-09-06T21:50:41.731Z,42.30
2018-09-06T21:53:44.822Z,38.40
2018-09-06T21:56:48.066Z,36.07
2018-09-06T21:59:51.143Z,42.03
2018-09-06T22:02:59.536Z,37.40
2018-09-06T22:06:02.638Z,37.40
2018-09-06T22:09:09.560Z,46.10
2018-09-06T22:12:16.695Z,41.17
2018-09-06T22:15:20.019Z,37.53
2018-09-06T22:18:23.144Z,40.00
2018-09-06T22:21:26.364Z,36.70
2018-09-06T22:24:29.459Z,39.93
2018-09-06T22:27:32.567Z,43.70
2018-09-06T22:30:35.687Z,43.37
2018-09-06T22:33:38.823Z,42.77
2018-09-06T22:36:41.906Z,46.17
2018-09-06T22:39:45.083Z,43.90
2018-09-06T22:42:48.188Z,44.40
2018-09-06T22:45:51.339Z,53.10
2018-09-06T22:48:54.468Z,45.87
2018-09-06T22:51:57.540Z,49.53
2018-09-06T22:55:00.635Z,52.07
2018-09-06T22:58:03.880Z,48.73
2018-09-06T23:01:07.130Z,50.30
2018-09-06T23:04:10.303Z,55.23
2018-09-06T23:07:13.449Z,53.10
2018-09-06T23:10:16.684Z,52.03
2018-09-06T23:13:19.760Z,47.97
2018-09-06T23:16:22.895Z,50.10
2018-09-06T23:19:25.992Z,46.67
2018-09-06T23:22:29.059Z,44.37
2018-09-06T23:25:32.153Z,44.97
2018-09-06T23:28:35.490Z,46.97
2018-09-06T23:31:38.564Z,49.10
2018-09-06T23:34:41.800Z,51.60
2018-09-06T23:37:44.943Z,50.67
2018-09-06T23:40:53.499Z,49.93
2018-09-06T23:43:56.595Z,47.93
2018-09-06T23:46:59.927Z,49.43
2018-09-06T23:50:03.072Z,49.07
2018-09-06T23:53:06.330Z,49.90
2018-09-06T23:56:09.515Z,45.13
2018-09-06T23:59:12.710Z,44.17
